sensor_id;sensor_type;location;lat;lon;timestamp;temperature;humidity
19622;DHT22;9958;33.196;-97.114;2024-01-11T00:01:53;15.20;52.60
19622;DHT22;9958;33.196;-97.114;2024-01-11T00:04:22;15.10;53.20
19622;DHT22;9958;33.196;-97.114;2024-01-11T00:06:50;15.00;53.60
19622;DHT22;9958;33.196;-97.114;2024-01-11T00:09:19;14.90;54.00
19622;DHT22;9958;33.196;-97.114;2024-01-11T00:11:47;14.80;54.30
19622;DHT22;9958;33.196;-97.114;2024-01-11T00:14:17;14.70;54.30
19622;DHT22;9958;33.196;-97.114;2024-01-11T00:16:45;14.50;54.50
19622;DHT22;9958;33.196;-97.114;2024-01-11T00:19:13;14.40;54.60
19622;DHT22;9958;33.196;-97.114;2024-01-11T00:21:42;14.30;54.70
19622;DHT22;9958;33.196;-97.114;2024-01-11T00:24:10;14.20;55.10
19622;DHT22;9958;33.196;-97.114;2024-01-11T00:26:38;14.10;55.70
19622;DHT22;9958;33.196;-97.114;2024-01-11T00:29:08;14.00;56.00
19622;DHT22;9958;33.196;-97.114;2024-01-11T00:31:37;13.90;56.90
19622;DHT22;9958;33.196;-97.114;2024-01-11T00:34:06;13.80;57.10
19622;DHT22;9958;33.196;-97.114;2024-01-11T00:36:35;13.70;57.70
19622;DHT22;9958;33.196;-97.114;2024-01-11T00:39:03;13.60;57.10
19622;DHT22;9958;33.196;-97.114;2024-01-11T00:41:31;13.50;57.20
19622;DHT22;9958;33.196;-97.114;2024-01-11T00:44:00;13.40;57.30
19622;DHT22;9958;33.196;-97.114;2024-01-11T00:46:28;13.30;57.70
19622;DHT22;9958;33.196;-97.114;2024-01-11T00:48:58;13.20;58.10
19622;DHT22;9958;33.196;-97.114;2024-01-11T00:51:26;13.10;58.40
19622;DHT22;9958;33.196;-97.114;2024-01-11T00:53:55;13.00;58.70
19622;DHT22;9958;33.196;-97.114;2024-01-11T00:56:23;12.90;59.10
19622;DHT22;9958;33.196;-97.114;2024-01-11T00:58:51;12.90;59.20
19622;DHT22;9958;33.196;-97.114;2024-01-11T01:01:20;12.80;59.10
19622;DHT22;9958;33.196;-97.114;2024-01-11T01:03:48;12.80;59.30
19622;DHT22;9958;33.196;-97.114;2024-01-11T01:06:18;12.70;59.30
19622;DHT22;9958;33.196;-97.114;2024-01-11T01:08:46;12.70;59.50
19622;DHT22;9958;33.196;-97.114;2024-01-11T01:11:15;12.60;59.50
19622;DHT22;9958;33.196;-97.114;2024-01-11T01:13:43;12.50;59.80
19622;DHT22;9958;33.196;-97.114;2024-01-11T01:16:11;12.50;60.00
19622;DHT22;9958;33.196;-97.114;2024-01-11T01:18:40;12.40;60.10
19622;DHT22;9958;33.196;-97.114;2024-01-11T01:21:08;12.40;60.40
19622;DHT22;9958;33.196;-97.114;2024-01-11T01:23:38;12.30;60.30
19622;DHT22;9958;33.196;-97.114;2024-01-11T01:26:07;12.30;60.70
19622;DHT22;9958;33.196;-97.114;2024-01-11T01:28:35;12.20;60.70
19622;DHT22;9958;33.196;-97.114;2024-01-11T01:31:04;12.20;61.00
19622;DHT22;9958;33.196;-97.114;2024-01-11T01:33:32;12.10;60.90
19622;DHT22;9958;33.196;-97.114;2024-01-11T01:36:00;12.10;61.20
19622;DHT22;9958;33.196;-97.114;2024-01-11T01:38:29;12.10;61.80
19622;DHT22;9958;33.196;-97.114;2024-01-11T01:40:59;12.00;61.20
19622;DHT22;9958;33.196;-97.114;2024-01-11T01:43:27;12.00;61.30
19622;DHT22;9958;33.196;-97.114;2024-01-11T01:45:55;11.90;61.20
19622;DHT22;9958;33.196;-97.114;2024-01-11T01:48:24;11.90;61.20
19622;DHT22;9958;33.196;-97.114;2024-01-11T01:50:52;11.80;61.20
19622;DHT22;9958;33.196;-97.114;2024-01-11T01:53:22;11.80;61.50
19622;DHT22;9958;33.196;-97.114;2024-01-11T01:55:51;11.80;61.90
19622;DHT22;9958;33.196;-97.114;2024-01-11T01:58:22;11.70;62.00
19622;DHT22;9958;33.196;-97.114;2024-01-11T02:00:51;11.70;62.60
19622;DHT22;9958;33.196;-97.114;2024-01-11T02:03:20;11.60;62.90
19622;DHT22;9958;33.196;-97.114;2024-01-11T02:05:49;11.60;63.50
19622;DHT22;9958;33.196;-97.114;2024-01-11T02:08:18;11.50;63.60
19622;DHT22;9958;33.196;-97.114;2024-01-11T02:10:48;11.50;63.70
19622;DHT22;9958;33.196;-97.114;2024-01-11T02:13:16;11.40;63.50
19622;DHT22;9958;33.196;-97.114;2024-01-11T02:15:47;11.40;63.70
19622;DHT22;9958;33.196;-97.114;2024-01-11T02:18:15;11.40;63.70
19622;DHT22;9958;33.196;-97.114;2024-01-11T02:20:43;11.30;63.90
19622;DHT22;9958;33.196;-97.114;2024-01-11T02:23:17;11.30;64.00
19622;DHT22;9958;33.196;-97.114;2024-01-11T02:25:47;11.20;64.60
19622;DHT22;9958;33.196;-97.114;2024-01-11T02:28:15;11.20;64.60
19622;DHT22;9958;33.196;-97.114;2024-01-11T02:30:44;11.20;64.60
19622;DHT22;9958;33.196;-97.114;2024-01-11T02:33:12;11.20;65.00
19622;DHT22;9958;33.196;-97.114;2024-01-11T02:35:42;11.20;65.00
19622;DHT22;9958;33.196;-97.114;2024-01-11T02:38:11;11.20;64.80
19622;DHT22;9958;33.196;-97.114;2024-01-11T02:40:40;11.20;64.80
19622;DHT22;9958;33.196;-97.114;2024-01-11T02:43:11;11.20;64.50
19622;DHT22;9958;33.196;-97.114;2024-01-11T02:45:39;11.20;64.60
19622;DHT22;9958;33.196;-97.114;2024-01-11T02:48:08;11.10;64.70
19622;DHT22;9958;33.196;-97.114;2024-01-11T02:50:36;11.10;64.70
19622;DHT22;9958;33.196;-97.114;2024-01-11T02:53:04;11.20;64.90
19622;DHT22;9958;33.196;-97.114;2024-01-11T02:55:33;11.10;65.60
19622;DHT22;9958;33.196;-97.114;2024-01-11T02:58:00;11.10;64.80
19622;DHT22;9958;33.196;-97.114;2024-01-11T03:00:29;11.10;64.90
19622;DHT22;9958;33.196;-97.114;2024-01-11T03:02:58;11.10;64.90
19622;DHT22;9958;33.196;-97.114;2024-01-11T03:05:27;11.00;64.80
19622;DHT22;9958;33.196;-97.114;2024-01-11T03:07:55;11.00;64.90
19622;DHT22;9958;33.196;-97.114;2024-01-11T03:10:23;11.00;65.10
19622;DHT22;9958;33.196;-97.114;2024-01-11T03:12:51;11.00;65.10
19622;DHT22;9958;33.196;-97.114;2024-01-11T03:15:20;11.00;65.00
19622;DHT22;9958;33.196;-97.114;2024-01-11T03:17:50;11.00;65.00
19622;DHT22;9958;33.196;-97.114;2024-01-11T03:20:18;10.90;64.90
19622;DHT22;9958;33.196;-97.114;2024-01-11T03:22:51;10.90;64.90
19622;DHT22;9958;33.196;-97.114;2024-01-11T03:25:19;10.90;65.00
19622;DHT22;9958;33.196;-97.114;2024-01-11T03:27:47;10.90;65.10
19622;DHT22;9958;33.196;-97.114;2024-01-11T03:30:16;10.90;65.10
19622;DHT22;9958;33.196;-97.114;2024-01-11T03:32:44;10.90;65.10
19622;DHT22;9958;33.196;-97.114;2024-01-11T03:35:14;10.90;65.30
19622;DHT22;9958;33.196;-97.114;2024-01-11T03:37:42;10.90;65.30
19622;DHT22;9958;33.196;-97.114;2024-01-11T03:40:11;10.90;66.00
19622;DHT22;9958;33.196;-97.114;2024-01-11T03:42:42;10.80;66.20
19622;DHT22;9958;33.196;-97.114;2024-01-11T03:45:10;10.80;66.40
19622;DHT22;9958;33.196;-97.114;2024-01-11T03:47:39;10.80;66.40
19622;DHT22;9958;33.196;-97.114;2024-01-11T03:50:09;10.80;66.40
19622;DHT22;9958;33.196;-97.114;2024-01-11T03:52:39;10.70;67.30
19622;DHT22;9958;33.196;-97.114;2024-01-11T03:55:08;10.70;66.70
19622;DHT22;9958;33.196;-97.114;2024-01-11T03:57:36;10.60;66.90
19622;DHT22;9958;33.196;-97.114;2024-01-11T04:00:06;10.60;67.50
19622;DHT22;9958;33.196;-97.114;2024-01-11T04:02:35;10.60;68.00
19622;DHT22;9958;33.196;-97.114;2024-01-11T04:05:04;10.60;68.00
19622;DHT22;9958;33.196;-97.114;2024-01-11T04:07:33;10.60;68.40
19622;DHT22;9958;33.196;-97.114;2024-01-11T04:10:03;10.50;68.20
19622;DHT22;9958;33.196;-97.114;2024-01-11T04:12:31;10.50;68.00
19622;DHT22;9958;33.196;-97.114;2024-01-11T04:15:00;10.50;67.90
19622;DHT22;9958;33.196;-97.114;2024-01-11T04:17:28;10.50;68.10
19622;DHT22;9958;33.196;-97.114;2024-01-11T04:19:56;10.50;68.00
19622;DHT22;9958;33.196;-97.114;2024-01-11T04:22:25;10.40;68.30
19622;DHT22;9958;33.196;-97.114;2024-01-11T04:24:53;10.40;68.60
19622;DHT22;9958;33.196;-97.114;2024-01-11T04:27:23;10.40;68.30
19622;DHT22;9958;33.196;-97.114;2024-01-11T04:29:51;10.40;68.30
19622;DHT22;9958;33.196;-97.114;2024-01-11T04:32:20;10.40;68.00
19622;DHT22;9958;33.196;-97.114;2024-01-11T04:34:48;10.40;68.50
19622;DHT22;9958;33.196;-97.114;2024-01-11T04:37:16;10.40;70.10
19622;DHT22;9958;33.196;-97.114;2024-01-11T04:39:45;10.30;71.90
19622;DHT22;9958;33.196;-97.114;2024-01-11T04:42:13;10.20;70.30
19622;DHT22;9958;33.196;-97.114;2024-01-11T04:44:43;10.10;71.10
19622;DHT22;9958;33.196;-97.114;2024-01-11T04:47:12;10.10;70.80
19622;DHT22;9958;33.196;-97.114;2024-01-11T04:49:40;10.00;70.80
19622;DHT22;9958;33.196;-97.114;2024-01-11T04:52:08;10.00;71.80
19622;DHT22;9958;33.196;-97.114;2024-01-11T04:54:36;10.00;71.50
19622;DHT22;9958;33.196;-97.114;2024-01-11T04:57:05;9.90;72.60
19622;DHT22;9958;33.196;-97.114;2024-01-11T04:59:33;9.80;74.90
19622;DHT22;9958;33.196;-97.114;2024-01-11T05:02:04;9.70;74.60
19622;DHT22;9958;33.196;-97.114;2024-01-11T05:04:32;9.70;73.70
19622;DHT22;9958;33.196;-97.114;2024-01-11T05:07:00;9.60;74.00
19622;DHT22;9958;33.196;-97.114;2024-01-11T05:09:28;9.50;74.50
19622;DHT22;9958;33.196;-97.114;2024-01-11T05:11:57;9.40;74.90
19622;DHT22;9958;33.196;-97.114;2024-01-11T05:14:26;9.30;77.00
19622;DHT22;9958;33.196;-97.114;2024-01-11T05:16:54;9.30;77.00
19622;DHT22;9958;33.196;-97.114;2024-01-11T05:19:24;9.20;76.70
19622;DHT22;9958;33.196;-97.114;2024-01-11T05:21:52;9.10;76.90
19622;DHT22;9958;33.196;-97.114;2024-01-11T05:24:21;9.00;77.40
19622;DHT22;9958;33.196;-97.114;2024-01-11T05:26:49;8.90;79.00
19622;DHT22;9958;33.196;-97.114;2024-01-11T05:29:17;8.90;79.20
19622;DHT22;9958;33.196;-97.114;2024-01-11T05:31:46;8.80;79.00
19622;DHT22;9958;33.196;-97.114;2024-01-11T05:34:14;8.70;79.40
19622;DHT22;9958;33.196;-97.114;2024-01-11T05:36:44;8.60;79.30
19622;DHT22;9958;33.196;-97.114;2024-01-11T05:39:12;8.60;79.80
19622;DHT22;9958;33.196;-97.114;2024-01-11T05:41:43;8.60;80.00
19622;DHT22;9958;33.196;-97.114;2024-01-11T05:44:12;8.50;80.70
19622;DHT22;9958;33.196;-97.114;2024-01-11T05:46:40;8.40;82.00
19622;DHT22;9958;33.196;-97.114;2024-01-11T05:49:08;8.40;81.90
19622;DHT22;9958;33.196;-97.114;2024-01-11T05:51:37;8.30;81.60
19622;DHT22;9958;33.196;-97.114;2024-01-11T05:54:06;8.30;81.50
19622;DHT22;9958;33.196;-97.114;2024-01-11T05:56:35;8.20;82.90
19622;DHT22;9958;33.196;-97.114;2024-01-11T05:59:03;8.20;82.90
19622;DHT22;9958;33.196;-97.114;2024-01-11T06:01:32;8.10;82.30
19622;DHT22;9958;33.196;-97.114;2024-01-11T06:04:00;8.10;84.50
19622;DHT22;9958;33.196;-97.114;2024-01-11T06:06:28;8.00;84.90
19622;DHT22;9958;33.196;-97.114;2024-01-11T06:08:57;8.00;84.10
19622;DHT22;9958;33.196;-97.114;2024-01-11T06:11:26;7.90;84.90
19622;DHT22;9958;33.196;-97.114;2024-01-11T06:13:56;7.80;84.70
19622;DHT22;9958;33.196;-97.114;2024-01-11T06:16:25;7.80;84.70
19622;DHT22;9958;33.196;-97.114;2024-01-11T06:18:53;7.80;84.30
19622;DHT22;9958;33.196;-97.114;2024-01-11T06:21:21;7.80;84.20
19622;DHT22;9958;33.196;-97.114;2024-01-11T06:23:50;7.70;84.10
19622;DHT22;9958;33.196;-97.114;2024-01-11T06:26:18;7.70;84.60
19622;DHT22;9958;33.196;-97.114;2024-01-11T06:28:48;7.70;86.20
19622;DHT22;9958;33.196;-97.114;2024-01-11T06:31:16;7.60;86.80
19622;DHT22;9958;33.196;-97.114;2024-01-11T06:33:45;7.60;88.20
19622;DHT22;9958;33.196;-97.114;2024-01-11T06:36:13;7.50;87.10
19622;DHT22;9958;33.196;-97.114;2024-01-11T06:38:41;7.50;88.30
19622;DHT22;9958;33.196;-97.114;2024-01-11T06:41:10;7.40;87.70
19622;DHT22;9958;33.196;-97.114;2024-01-11T06:43:38;7.40;87.20
19622;DHT22;9958;33.196;-97.114;2024-01-11T06:46:08;7.30;88.20
19622;DHT22;9958;33.196;-97.114;2024-01-11T06:48:37;7.40;88.30
19622;DHT22;9958;33.196;-97.114;2024-01-11T06:51:05;7.30;88.70
19622;DHT22;9958;33.196;-97.114;2024-01-11T06:53:37;7.30;88.10
19622;DHT22;9958;33.196;-97.114;2024-01-11T06:56:14;7.30;87.90
19622;DHT22;9958;33.196;-97.114;2024-01-11T06:58:43;7.20;88.00
19622;DHT22;9958;33.196;-97.114;2024-01-11T07:01:13;7.20;88.70
19622;DHT22;9958;33.196;-97.114;2024-01-11T07:03:42;7.20;89.90
19622;DHT22;9958;33.196;-97.114;2024-01-11T07:06:10;7.10;90.10
19622;DHT22;9958;33.196;-97.114;2024-01-11T07:08:39;7.10;89.40
19622;DHT22;9958;33.196;-97.114;2024-01-11T07:11:07;7.10;89.60
19622;DHT22;9958;33.196;-97.114;2024-01-11T07:13:35;7.00;89.50
19622;DHT22;9958;33.196;-97.114;2024-01-11T07:16:04;6.90;89.80
19622;DHT22;9958;33.196;-97.114;2024-01-11T07:18:34;6.90;90.00
19622;DHT22;9958;33.196;-97.114;2024-01-11T07:21:03;6.80;90.50
19622;DHT22;9958;33.196;-97.114;2024-01-11T07:23:31;6.80;90.30
19622;DHT22;9958;33.196;-97.114;2024-01-11T07:25:59;6.70;90.40
19622;DHT22;9958;33.196;-97.114;2024-01-11T07:28:29;6.70;91.20
19622;DHT22;9958;33.196;-97.114;2024-01-11T07:30:57;6.60;91.20
19622;DHT22;9958;33.196;-97.114;2024-01-11T07:33:25;6.50;91.20
19622;DHT22;9958;33.196;-97.114;2024-01-11T07:35:55;6.50;91.40
19622;DHT22;9958;33.196;-97.114;2024-01-11T07:38:25;6.40;91.50
19622;DHT22;9958;33.196;-97.114;2024-01-11T07:40:53;6.40;92.20
19622;DHT22;9958;33.196;-97.114;2024-01-11T07:43:21;6.30;91.90
19622;DHT22;9958;33.196;-97.114;2024-01-11T07:45:50;6.30;92.50
19622;DHT22;9958;33.196;-97.114;2024-01-11T07:48:18;6.20;92.30
19622;DHT22;9958;33.196;-97.114;2024-01-11T07:50:46;6.20;92.50
19622;DHT22;9958;33.196;-97.114;2024-01-11T07:53:16;6.10;92.40
19622;DHT22;9958;33.196;-97.114;2024-01-11T07:55:45;6.10;92.70
19622;DHT22;9958;33.196;-97.114;2024-01-11T07:58:14;6.00;92.50
19622;DHT22;9958;33.196;-97.114;2024-01-11T08:00:42;6.00;92.80
19622;DHT22;9958;33.196;-97.114;2024-01-11T08:03:11;6.00;92.80
19622;DHT22;9958;33.196;-97.114;2024-01-11T08:05:39;6.00;93.40
19622;DHT22;9958;33.196;-97.114;2024-01-11T08:08:08;5.90;93.70
19622;DHT22;9958;33.196;-97.114;2024-01-11T08:10:38;5.90;93.80
19622;DHT22;9958;33.196;-97.114;2024-01-11T08:13:06;5.80;94.10
19622;DHT22;9958;33.196;-97.114;2024-01-11T08:15:36;5.80;94.10
19622;DHT22;9958;33.196;-97.114;2024-01-11T08:18:04;5.80;94.50
19622;DHT22;9958;33.196;-97.114;2024-01-11T08:20:33;5.70;94.90
19622;DHT22;9958;33.196;-97.114;2024-01-11T08:23:01;5.70;95.10
19622;DHT22;9958;33.196;-97.114;2024-01-11T08:25:29;5.60;95.40
19622;DHT22;9958;33.196;-97.114;2024-01-11T08:27:59;5.60;95.70
19622;DHT22;9958;33.196;-97.114;2024-01-11T08:30:29;5.60;96.10
19622;DHT22;9958;33.196;-97.114;2024-01-11T08:32:57;5.60;96.30
19622;DHT22;9958;33.196;-97.114;2024-01-11T08:35:25;5.50;96.40
19622;DHT22;9958;33.196;-97.114;2024-01-11T08:37:54;5.50;96.40
19622;DHT22;9958;33.196;-97.114;2024-01-11T08:40:22;5.50;96.80
19622;DHT22;9958;33.196;-97.114;2024-01-11T08:42:50;5.50;97.00
19622;DHT22;9958;33.196;-97.114;2024-01-11T08:45:20;5.50;97.10
19622;DHT22;9958;33.196;-97.114;2024-01-11T08:47:49;5.40;97.20
19622;DHT22;9958;33.196;-97.114;2024-01-11T08:50:18;5.40;97.30
19622;DHT22;9958;33.196;-97.114;2024-01-11T08:52:48;5.40;97.50
19622;DHT22;9958;33.196;-97.114;2024-01-11T08:55:16;5.30;97.90
19622;DHT22;9958;33.196;-97.114;2024-01-11T08:57:44;5.40;98.30
19622;DHT22;9958;33.196;-97.114;2024-01-11T09:00:13;5.30;98.30
19622;DHT22;9958;33.196;-97.114;2024-01-11T09:02:45;5.30;98.20
19622;DHT22;9958;33.196;-97.114;2024-01-11T09:05:15;5.30;98.30
19622;DHT22;9958;33.196;-97.114;2024-01-11T09:07:43;5.20;98.60
19622;DHT22;9958;33.196;-97.114;2024-01-11T09:10:12;5.20;99.00
19622;DHT22;9958;33.196;-97.114;2024-01-11T09:12:40;5.20;99.10
19622;DHT22;9958;33.196;-97.114;2024-01-11T09:15:09;5.20;99.20
19622;DHT22;9958;33.196;-97.114;2024-01-11T09:17:38;5.20;99.40
19622;DHT22;9958;33.196;-97.114;2024-01-11T09:20:08;5.10;99.80
19622;DHT22;9958;33.196;-97.114;2024-01-11T09:22:40;5.10;99.90
19622;DHT22;9958;33.196;-97.114;2024-01-11T09:25:09;5.10;99.80
19622;DHT22;9958;33.196;-97.114;2024-01-11T09:27:37;5.10;99.90
19622;DHT22;9958;33.196;-97.114;2024-01-11T09:30:06;5.00;99.90
19622;DHT22;9958;33.196;-97.114;2024-01-11T09:32:35;5.00;99.90
19622;DHT22;9958;33.196;-97.114;2024-01-11T09:35:03;5.00;99.90
19622;DHT22;9958;33.196;-97.114;2024-01-11T09:37:33;5.00;99.90
19622;DHT22;9958;33.196;-97.114;2024-01-11T09:40:02;5.00;99.90
19622;DHT22;9958;33.196;-97.114;2024-01-11T09:42:33;5.00;99.90
19622;DHT22;9958;33.196;-97.114;2024-01-11T09:45:02;4.90;99.90
19622;DHT22;9958;33.196;-97.114;2024-01-11T09:47:32;4.90;99.90
19622;DHT22;9958;33.196;-97.114;2024-01-11T09:50:03;4.90;99.90
19622;DHT22;9958;33.196;-97.114;2024-01-11T09:52:33;4.90;99.90
19622;DHT22;9958;33.196;-97.114;2024-01-11T09:55:01;4.80;99.90
19622;DHT22;9958;33.196;-97.114;2024-01-11T09:57:31;4.80;99.90
19622;DHT22;9958;33.196;-97.114;2024-01-11T10:00:02;4.80;99.90
19622;DHT22;9958;33.196;-97.114;2024-01-11T10:02:33;4.80;99.90
19622;DHT22;9958;33.196;-97.114;2024-01-11T10:05:02;4.80;99.90
19622;DHT22;9958;33.196;-97.114;2024-01-11T10:07:31;4.70;99.90
19622;DHT22;9958;33.196;-97.114;2024-01-11T10:10:02;4.80;99.90
19622;DHT22;9958;33.196;-97.114;2024-01-11T10:12:30;4.70;99.90
19622;DHT22;9958;33.196;-97.114;2024-01-11T10:15:05;4.70;99.90
19622;DHT22;9958;33.196;-97.114;2024-01-11T10:17:36;4.70;99.90
19622;DHT22;9958;33.196;-97.114;2024-01-11T10:20:05;4.70;99.90
19622;DHT22;9958;33.196;-97.114;2024-01-11T10:22:37;4.70;99.90
19622;DHT22;9958;33.196;-97.114;2024-01-11T10:25:13;4.70;99.90
19622;DHT22;9958;33.196;-97.114;2024-01-11T10:27:42;4.70;99.90
19622;DHT22;9958;33.196;-97.114;2024-01-11T10:30:12;4.60;99.90
19622;DHT22;9958;33.196;-97.114;2024-01-11T10:32:42;4.60;99.90
19622;DHT22;9958;33.196;-97.114;2024-01-11T10:35:11;4.60;99.90
19622;DHT22;9958;33.196;-97.114;2024-01-11T10:37:39;4.60;99.90
19622;DHT22;9958;33.196;-97.114;2024-01-11T10:40:09;4.60;99.90
19622;DHT22;9958;33.196;-97.114;2024-01-11T10:42:42;4.60;99.90
19622;DHT22;9958;33.196;-97.114;2024-01-11T10:45:15;4.50;99.90
19622;DHT22;9958;33.196;-97.114;2024-01-11T10:47:53;4.50;99.90
19622;DHT22;9958;33.196;-97.114;2024-01-11T10:50:24;4.50;99.90
19622;DHT22;9958;33.196;-97.114;2024-01-11T10:53:04;4.40;99.90
19622;DHT22;9958;33.196;-97.114;2024-01-11T10:55:37;4.40;99.90
19622;DHT22;9958;33.196;-97.114;2024-01-11T10:58:10;4.40;99.90
19622;DHT22;9958;33.196;-97.114;2024-01-11T11:00:38;4.40;99.90
19622;DHT22;9958;33.196;-97.114;2024-01-11T11:03:07;4.30;99.90
19622;DHT22;9958;33.196;-97.114;2024-01-11T11:05:38;4.30;99.90
19622;DHT22;9958;33.196;-97.114;2024-01-11T11:08:07;4.30;99.90
19622;DHT22;9958;33.196;-97.114;2024-01-11T11:10:39;4.20;99.90
19622;DHT22;9958;33.196;-97.114;2024-01-11T11:13:12;4.20;99.90
19622;DHT22;9958;33.196;-97.114;2024-01-11T11:15:44;4.20;99.90
19622;DHT22;9958;33.196;-97.114;2024-01-11T11:18:13;4.20;99.90
19622;DHT22;9958;33.196;-97.114;2024-01-11T11:20:42;4.10;99.90
19622;DHT22;9958;33.196;-97.114;2024-01-11T11:23:11;4.10;99.90
19622;DHT22;9958;33.196;-97.114;2024-01-11T11:25:42;4.10;99.90
19622;DHT22;9958;33.196;-97.114;2024-01-11T11:28:13;4.10;99.90
19622;DHT22;9958;33.196;-97.114;2024-01-11T11:30:43;4.00;99.90
19622;DHT22;9958;33.196;-97.114;2024-01-11T11:33:17;4.00;99.90
19622;DHT22;9958;33.196;-97.114;2024-01-11T11:35:46;3.90;99.90
19622;DHT22;9958;33.196;-97.114;2024-01-11T11:38:18;3.90;99.90
19622;DHT22;9958;33.196;-97.114;2024-01-11T11:40:48;3.90;99.90
19622;DHT22;9958;33.196;-97.114;2024-01-11T11:43:19;3.80;99.90
19622;DHT22;9958;33.196;-97.114;2024-01-11T11:45:50;3.80;99.90
19622;DHT22;9958;33.196;-97.114;2024-01-11T11:51:26;3.80;99.90
19622;DHT22;9958;33.196;-97.114;2024-01-11T11:53:56;3.70;99.90
19622;DHT22;9958;33.196;-97.114;2024-01-11T11:56:25;3.70;99.90
19622;DHT22;9958;33.196;-97.114;2024-01-11T11:58:55;3.70;99.90
19622;DHT22;9958;33.196;-97.114;2024-01-11T12:01:23;3.60;99.90
19622;DHT22;9958;33.196;-97.114;2024-01-11T12:03:53;3.70;99.90
19622;DHT22;9958;33.196;-97.114;2024-01-11T12:06:21;3.60;99.90
19622;DHT22;9958;33.196;-97.114;2024-01-11T12:08:54;3.60;99.90
19622;DHT22;9958;33.196;-97.114;2024-01-11T12:11:23;3.60;99.90
19622;DHT22;9958;33.196;-97.114;2024-01-11T12:13:51;3.60;99.90
19622;DHT22;9958;33.196;-97.114;2024-01-11T12:16:22;3.60;99.90
19622;DHT22;9958;33.196;-97.114;2024-01-11T12:18:51;3.60;99.90
19622;DHT22;9958;33.196;-97.114;2024-01-11T12:21:20;3.60;99.90
19622;DHT22;9958;33.196;-97.114;2024-01-11T12:23:48;3.60;99.90
19622;DHT22;9958;33.196;-97.114;2024-01-11T12:26:17;3.60;99.90
19622;DHT22;9958;33.196;-97.114;2024-01-11T12:28:48;3.60;99.90
19622;DHT22;9958;33.196;-97.114;2024-01-11T12:31:17;3.60;99.90
19622;DHT22;9958;33.196;-97.114;2024-01-11T12:33:48;3.60;99.90
19622;DHT22;9958;33.196;-97.114;2024-01-11T12:36:16;3.60;99.90
19622;DHT22;9958;33.196;-97.114;2024-01-11T12:38:48;3.60;99.90
19622;DHT22;9958;33.196;-97.114;2024-01-11T12:41:16;3.60;99.90
19622;DHT22;9958;33.196;-97.114;2024-01-11T12:43:45;3.60;99.90
19622;DHT22;9958;33.196;-97.114;2024-01-11T12:46:13;3.70;99.90
19622;DHT22;9958;33.196;-97.114;2024-01-11T12:48:42;3.70;99.90
19622;DHT22;9958;33.196;-97.114;2024-01-11T12:51:12;3.70;99.90
19622;DHT22;9958;33.196;-97.114;2024-01-11T12:53:40;3.70;99.90
19622;DHT22;9958;33.196;-97.114;2024-01-11T12:56:09;3.70;99.90
19622;DHT22;9958;33.196;-97.114;2024-01-11T12:58:38;3.70;99.90
19622;DHT22;9958;33.196;-97.114;2024-01-11T13:01:07;3.70;99.90
19622;DHT22;9958;33.196;-97.114;2024-01-11T13:03:35;3.80;99.90
19622;DHT22;9958;33.196;-97.114;2024-01-11T13:06:04;3.70;99.90
19622;DHT22;9958;33.196;-97.114;2024-01-11T13:08:34;3.80;99.90
19622;DHT22;9958;33.196;-97.114;2024-01-11T13:11:06;3.80;99.90
19622;DHT22;9958;33.196;-97.114;2024-01-11T13:13:34;3.80;99.90
19622;DHT22;9958;33.196;-97.114;2024-01-11T13:16:03;3.80;99.90
19622;DHT22;9958;33.196;-97.114;2024-01-11T13:18:34;3.80;99.90
19622;DHT22;9958;33.196;-97.114;2024-01-11T13:21:03;3.90;99.90
19622;DHT22;9958;33.196;-97.114;2024-01-11T13:23:34;3.90;99.90
19622;DHT22;9958;33.196;-97.114;2024-01-11T13:26:04;3.90;99.90
19622;DHT22;9958;33.196;-97.114;2024-01-11T13:28:32;4.00;99.90
19622;DHT22;9958;33.196;-97.114;2024-01-11T13:31:01;4.00;99.90
19622;DHT22;9958;33.196;-97.114;2024-01-11T13:33:29;4.10;99.90
19622;DHT22;9958;33.196;-97.114;2024-01-11T13:35:58;4.20;99.90
19622;DHT22;9958;33.196;-97.114;2024-01-11T13:38:26;4.30;99.90
19622;DHT22;9958;33.196;-97.114;2024-01-11T13:40:56;4.40;99.90
19622;DHT22;9958;33.196;-97.114;2024-01-11T13:43:24;4.50;99.90
19622;DHT22;9958;33.196;-97.114;2024-01-11T13:45:53;4.60;99.90
19622;DHT22;9958;33.196;-97.114;2024-01-11T13:48:22;4.70;99.90
19622;DHT22;9958;33.196;-97.114;2024-01-11T13:50:50;4.80;99.90
19622;DHT22;9958;33.196;-97.114;2024-01-11T13:53:19;4.90;99.90
19622;DHT22;9958;33.196;-97.114;2024-01-11T13:55:47;5.00;99.90
19622;DHT22;9958;33.196;-97.114;2024-01-11T13:58:17;5.10;99.90
19622;DHT22;9958;33.196;-97.114;2024-01-11T14:00:45;5.10;99.90
19622;DHT22;9958;33.196;-97.114;2024-01-11T14:03:14;5.20;99.90
19622;DHT22;9958;33.196;-97.114;2024-01-11T14:05:42;5.30;99.90
19622;DHT22;9958;33.196;-97.114;2024-01-11T14:08:10;5.40;99.90
19622;DHT22;9958;33.196;-97.114;2024-01-11T14:10:38;5.40;99.90
19622;DHT22;9958;33.196;-97.114;2024-01-11T14:13:07;5.50;99.90
19622;DHT22;9958;33.196;-97.114;2024-01-11T14:15:37;5.60;99.90
19622;DHT22;9958;33.196;-97.114;2024-01-11T14:18:07;5.70;99.90
19622;DHT22;9958;33.196;-97.114;2024-01-11T14:20:36;5.70;99.90
19622;DHT22;9958;33.196;-97.114;2024-01-11T14:23:04;5.80;99.90
19622;DHT22;9958;33.196;-97.114;2024-01-11T14:25:32;5.90;99.90
19622;DHT22;9958;33.196;-97.114;2024-01-11T14:28:01;6.00;99.90
19622;DHT22;9958;33.196;-97.114;2024-01-11T14:30:30;6.10;99.90
19622;DHT22;9958;33.196;-97.114;2024-01-11T14:33:01;6.20;99.90
19622;DHT22;9958;33.196;-97.114;2024-01-11T14:35:30;6.30;99.90
19622;DHT22;9958;33.196;-97.114;2024-01-11T14:37:59;6.40;99.90
19622;DHT22;9958;33.196;-97.114;2024-01-11T14:40:27;6.40;99.90
19622;DHT22;9958;33.196;-97.114;2024-01-11T14:42:55;6.60;99.90
19622;DHT22;9958;33.196;-97.114;2024-01-11T14:45:24;6.70;99.90
19622;DHT22;9958;33.196;-97.114;2024-01-11T14:47:53;6.80;99.90
19622;DHT22;9958;33.196;-97.114;2024-01-11T14:50:23;6.80;99.90
19622;DHT22;9958;33.196;-97.114;2024-01-11T14:52:51;7.00;99.90
19622;DHT22;9958;33.196;-97.114;2024-01-11T14:55:19;7.10;99.90
19622;DHT22;9958;33.196;-97.114;2024-01-11T14:57:48;7.20;99.90
19622;DHT22;9958;33.196;-97.114;2024-01-11T15:00:17;7.30;99.90
19622;DHT22;9958;33.196;-97.114;2024-01-11T15:02:45;7.40;99.90
19622;DHT22;9958;33.196;-97.114;2024-01-11T15:05:15;7.50;99.90
19622;DHT22;9958;33.196;-97.114;2024-01-11T15:07:46;7.60;99.90
19622;DHT22;9958;33.196;-97.114;2024-01-11T15:10:14;7.70;99.90
19622;DHT22;9958;33.196;-97.114;2024-01-11T15:12:43;7.80;99.90
19622;DHT22;9958;33.196;-97.114;2024-01-11T15:15:11;7.90;99.90
19622;DHT22;9958;33.196;-97.114;2024-01-11T15:17:40;8.10;99.90
19622;DHT22;9958;33.196;-97.114;2024-01-11T15:20:09;8.10;99.90
19622;DHT22;9958;33.196;-97.114;2024-01-11T15:22:37;8.30;99.90
19622;DHT22;9958;33.196;-97.114;2024-01-11T15:25:08;8.40;99.90
19622;DHT22;9958;33.196;-97.114;2024-01-11T15:27:36;8.40;99.90
19622;DHT22;9958;33.196;-97.114;2024-01-11T15:30:06;8.60;99.90
19622;DHT22;9958;33.196;-97.114;2024-01-11T15:32:34;8.70;99.90
19622;DHT22;9958;33.196;-97.114;2024-01-11T15:35:03;8.80;99.90
19622;DHT22;9958;33.196;-97.114;2024-01-11T15:37:34;8.90;99.90
19622;DHT22;9958;33.196;-97.114;2024-01-11T15:40:02;9.00;99.90